FR-0230 weather

Public forecast

Using degrees Celsius for public forecast. Weather courtesy of forecast.io.

Closest aviation weather report (METAR) to Hôtel Du Château Heliport

Closest report is Geneva Cointrin International Airport, 7.3 nm (13.5 km) S. Retrieved 2020/08/09 16:50 UTC (50 minutes ago):

LSGG 091650Z 05003KT 020V080 9999 FEW070 32/10 Q1015 NOSIG

Closest aviation forecast (TAF) to Hôtel Du Château Heliport

Closest forecast is Geneva Cointrin International Airport, 7.3 nm (13.5 km) S. Retrieved 2020/08/09 15:33 UTC (2 hours ago):

TAF LSGG 091425Z 0915/1021 04006KT 9999 FEW065 TX32/0915Z TN19/1004Z TX32/1015Z PROB30 TEMPO 1001/1005 TS SCT060CB PROB30 TEMPO 1017/1020 27015G25KT TSRA SCT060CB